Time;durP1;ratioP1;P1;durP2;ratioP2;P2;SDS_P1;SDS_P2;PMS_P1;PMS_P2;Temp;Humidity;BMP_temperature;BMP_pressure;BME280_temperature;BME280_humidity;BME280_pressure;Samples;Min_cycle;Max_cycle;Signal;HPM_P1;HPM_P2
2024/01/28 00:02:19;;;;;;;27.40;12.13;;;2.00;94.50;;;;;;4862987;29;20814;-78
2024/01/28 00:04:44;;;;;;;28.15;11.50;;;2.00;94.80;;;;;;4877074;29;20440;-78
2024/01/28 00:07:10;;;;;;;28.77;12.60;;;2.00;94.40;;;;;;4879297;29;20450;-78
2024/01/28 00:09:36;;;;;;;25.43;12.03;;;2.00;94.30;;;;;;4884219;29;20422;-77
2024/01/28 00:12:01;;;;;;;28.77;11.63;;;2.00;94.30;;;;;;4889751;29;20419;-76
2024/01/28 00:14:27;;;;;;;28.63;12.33;;;2.00;94.30;;;;;;4856784;29;20434;-77
2024/01/28 00:16:53;;;;;;;25.45;11.80;;;2.00;94.40;;;;;;4876944;29;20416;-76
2024/01/28 00:19:18;;;;;;;31.20;11.63;;;1.90;94.40;;;;;;4895469;29;20771;-78
2024/01/28 00:21:44;;;;;;;26.63;11.53;;;1.90;94.30;;;;;;4912308;29;20466;-77
2024/01/28 00:24:09;;;;;;;26.15;11.68;;;1.90;94.30;;;;;;4882380;29;20942;-78
2024/01/28 00:26:39;;;;;;;25.50;11.97;;;1.90;94.10;;;;;;4891585;29;20470;-78
2024/01/28 00:29:05;;;;;;;26.10;11.55;;;1.80;94.00;;;;;;4892210;29;20462;-79
2024/01/28 00:31:31;;;;;;;27.83;11.93;;;1.80;94.10;;;;;;4890449;29;20415;-78
2024/01/28 00:33:57;;;;;;;27.27;11.77;;;1.80;94.30;;;;;;4873897;29;20418;-78
2024/01/28 00:36:23;;;;;;;24.33;11.50;;;1.80;94.60;;;;;;4880775;29;20408;-78
2024/01/28 00:38:48;;;;;;;29.50;11.88;;;1.80;94.90;;;;;;4856394;29;21158;-78
2024/01/28 00:41:28;;;;;;;26.37;11.80;;;1.80;94.80;;;;;;4879667;29;20419;-78
2024/01/28 00:43:54;;;;;;;24.67;11.27;;;1.80;94.90;;;;;;4859274;29;20534;-78
2024/01/28 00:46:21;;;;;;;26.88;11.32;;;1.80;94.80;;;;;;4888329;29;20511;-78
2024/01/28 00:48:48;;;;;;;24.73;10.80;;;1.80;94.80;;;;;;4891522;29;20423;-78
2024/01/28 00:51:13;;;;;;;25.23;11.02;;;1.80;94.80;;;;;;4887334;29;20431;-78
2024/01/28 00:53:39;;;;;;;23.65;10.77;;;1.90;94.80;;;;;;4871314;29;20972;-78
2024/01/28 00:56:05;;;;;;;25.00;11.00;;;1.90;94.80;;;;;;4885490;29;20484;-78
2024/01/28 00:58:31;;;;;;;28.07;11.00;;;1.80;94.80;;;;;;4886367;29;20479;-78
2024/01/28 01:00:56;;;;;;;23.45;10.57;;;1.80;94.70;;;;;;4884791;29;20420;-78
2024/01/28 01:03:22;;;;;;;23.70;11.07;;;1.80;94.70;;;;;;4884409;29;20514;-77
2024/01/28 01:05:48;;;;;;;25.13;10.40;;;1.80;94.60;;;;;;4877138;29;20551;-78
2024/01/28 01:08:14;;;;;;;26.20;10.50;;;1.80;94.70;;;;;;4894034;29;21037;-78
2024/01/28 01:10:41;;;;;;;29.77;11.70;;;1.80;94.80;;;;;;4879417;29;20492;-78
2024/01/28 01:13:07;;;;;;;28.13;10.75;;;1.80;94.70;;;;;;4876282;29;20729;-78
2024/01/28 01:15:32;;;;;;;25.15;11.02;;;1.80;94.70;;;;;;4875488;29;20424;-78
2024/01/28 01:17:58;;;;;;;24.03;11.13;;;1.80;94.60;;;;;;4876075;29;20471;-78
2024/01/28 01:20:24;;;;;;;25.60;10.50;;;1.80;94.60;;;;;;4878847;29;20422;-77
2024/01/28 01:22:50;;;;;;;24.37;11.20;;;1.80;94.60;;;;;;4877741;29;20415;-78
2024/01/28 01:25:15;;;;;;;27.17;11.18;;;1.80;94.70;;;;;;4864006;29;20576;-78
2024/01/28 01:27:41;;;;;;;24.45;10.50;;;1.80;94.70;;;;;;4877151;29;20806;-78
2024/01/28 01:30:08;;;;;;;23.13;10.53;;;1.80;94.70;;;;;;4890096;29;20434;-77
2024/01/28 01:32:37;;;;;;;20.57;10.23;;;1.80;95.00;;;;;;4873528;29;20994;-77
2024/01/28 01:35:03;;;;;;;26.02;11.50;;;1.80;94.60;;;;;;4874822;29;20436;-77
2024/01/28 01:37:28;;;;;;;27.05;10.95;;;1.80;94.60;;;;;;4885545;29;20420;-77
2024/01/28 01:39:54;;;;;;;22.43;10.83;;;1.90;94.60;;;;;;4861110;29;21276;-77
2024/01/28 01:42:20;;;;;;;27.80;11.40;;;1.80;94.60;;;;;;4879140;29;20764;-78
2024/01/28 01:44:46;;;;;;;22.97;10.67;;;1.80;94.40;;;;;;4889977;29;20484;-77
2024/01/28 01:47:12;;;;;;;25.77;10.88;;;1.80;94.40;;;;;;4881869;29;20416;-77
2024/01/28 01:49:37;;;;;;;27.10;11.93;;;1.80;94.30;;;;;;4866365;29;20436;-78
2024/01/28 01:52:04;;;;;;;23.05;11.13;;;1.80;94.30;;;;;;4891264;29;20415;-77
2024/01/28 01:54:30;;;;;;;22.80;10.80;;;1.80;94.10;;;;;;4890215;29;20440;-77
2024/01/28 01:56:56;;;;;;;25.87;11.23;;;1.80;94.10;;;;;;4891738;29;20415;-77
2024/01/28 01:59:22;;;;;;;23.48;10.82;;;1.80;94.20;;;;;;4889879;29;20425;-77
2024/01/28 02:01:48;;;;;;;23.02;11.23;;;1.80;94.20;;;;;;4891511;29;20415;-77
2024/01/28 02:04:14;;;;;;;25.00;10.73;;;1.80;94.20;;;;;;4888315;29;20447;-77
2024/01/28 02:06:39;;;;;;;23.63;11.17;;;1.80;94.20;;;;;;4861847;29;20434;-77
2024/01/28 02:09:06;;;;;;;25.23;11.50;;;1.80;94.20;;;;;;4884651;29;20428;-77
2024/01/28 02:11:32;;;;;;;23.75;10.82;;;1.80;94.10;;;;;;4886403;29;20803;-77
2024/01/28 02:13:58;;;;;;;21.98;11.15;;;1.80;94.10;;;;;;4891951;29;20407;-77
2024/01/28 02:16:26;;;;;;;22.23;11.33;;;1.80;94.00;;;;;;4873353;29;20427;-77
2024/01/28 02:18:52;;;;;;;25.80;12.18;;;1.80;93.90;;;;;;4892590;29;20537;-77
2024/01/28 02:21:17;;;;;;;21.97;11.23;;;1.80;94.00;;;;;;4890368;29;20504;-77
2024/01/28 02:23:43;;;;;;;25.38;11.73;;;1.80;93.70;;;;;;4892038;29;20814;-77
2024/01/28 02:26:09;;;;;;;22.45;11.75;;;1.80;93.90;;;;;;4888430;29;20452;-77
2024/01/28 02:28:34;;;;;;;26.10;12.10;;;1.70;93.90;;;;;;4881491;29;20965;-77
2024/01/28 02:31:00;;;;;;;22.95;11.90;;;1.70;94.00;;;;;;4888156;29;20433;-77
2024/01/28 02:33:26;;;;;;;23.73;12.40;;;1.70;94.10;;;;;;4890810;29;20411;-77
2024/01/28 02:35:51;;;;;;;26.43;11.63;;;1.70;94.10;;;;;;4887217;29;20447;-77
2024/01/28 02:38:17;;;;;;;25.92;12.98;;;1.70;94.20;;;;;;4871283;29;20426;-77
2024/01/28 02:40:43;;;;;;;25.33;12.47;;;1.80;94.20;;;;;;4877466;29;20503;-77
2024/01/28 02:43:09;;;;;;;25.10;12.15;;;1.80;94.30;;;;;;4874618;29;20416;-77
2024/01/28 02:45:34;;;;;;;27.57;14.03;;;1.80;94.40;;;;;;4884966;29;20446;-77
2024/01/28 02:48:00;;;;;;;26.97;12.80;;;1.70;94.30;;;;;;4874663;29;20499;-76
2024/01/28 02:50:25;;;;;;;26.20;12.23;;;1.70;94.30;;;;;;4889464;29;20763;-77
2024/01/28 02:52:51;;;;;;;24.00;11.83;;;1.80;94.50;;;;;;4862323;29;20428;-77
2024/01/28 02:55:16;;;;;;;22.50;11.85;;;1.80;94.50;;;;;;4885567;29;20478;-77
2024/01/28 02:57:42;;;;;;;23.47;12.00;;;1.70;94.40;;;;;;4890101;29;20781;-77
2024/01/28 03:00:08;;;;;;;24.38;12.15;;;1.70;94.60;;;;;;4888260;29;20419;-77
2024/01/28 03:02:34;;;;;;;25.58;12.27;;;1.70;94.50;;;;;;4890082;29;20503;-77
2024/01/28 03:04:59;;;;;;;29.67;12.77;;;1.80;94.70;;;;;;4890657;29;20525;-77
2024/01/28 03:07:25;;;;;;;26.20;12.60;;;1.70;94.80;;;;;;4894038;29;21083;-77
2024/01/28 03:09:50;;;;;;;25.92;12.20;;;1.80;94.80;;;;;;4892933;29;20468;-78
2024/01/28 03:12:16;;;;;;;24.77;11.77;;;1.80;94.80;;;;;;4893964;29;20897;-77
2024/01/28 03:14:41;;;;;;;26.13;12.27;;;1.70;94.80;;;;;;4893002;29;20417;-77
2024/01/28 03:17:07;;;;;;;23.87;11.77;;;1.80;94.70;;;;;;4876819;29;20423;-77
2024/01/28 03:19:33;;;;;;;25.07;12.43;;;1.80;94.90;;;;;;4893096;29;20411;-77
2024/01/28 03:21:58;;;;;;;25.30;12.20;;;1.80;94.90;;;;;;4892587;29;20418;-78
2024/01/28 03:24:24;;;;;;;23.43;11.83;;;1.80;94.90;;;;;;4875611;29;20451;-78
2024/01/28 03:26:49;;;;;;;22.77;12.20;;;1.80;94.80;;;;;;4882255;29;20419;-77
2024/01/28 03:29:15;;;;;;;25.37;12.10;;;1.80;94.80;;;;;;4892038;29;20415;-77
2024/01/28 03:31:40;;;;;;;22.50;11.83;;;1.80;94.80;;;;;;4891718;29;20833;-77
2024/01/28 03:34:07;;;;;;;23.05;11.57;;;1.90;94.80;;;;;;4892712;29;20422;-77
2024/01/28 03:36:32;;;;;;;22.63;11.55;;;1.90;94.90;;;;;;4891372;29;20436;-76
2024/01/28 03:38:58;;;;;;;25.33;12.03;;;1.90;94.90;;;;;;4891697;29;20792;-77
2024/01/28 03:41:23;;;;;;;22.67;11.97;;;1.90;94.80;;;;;;4881703;29;20423;-78
2024/01/28 03:43:49;;;;;;;23.35;11.88;;;1.90;94.80;;;;;;4892713;29;20785;-77
2024/01/28 03:46:15;;;;;;;19.93;11.30;;;1.90;94.60;;;;;;4892455;29;20491;-78
2024/01/28 03:48:40;;;;;;;24.92;11.70;;;1.90;94.60;;;;;;4892439;29;20921;-77
2024/01/28 03:51:06;;;;;;;26.02;12.10;;;1.90;94.60;;;;;;4892349;29;20426;-77
2024/01/28 03:53:32;;;;;;;22.33;11.83;;;1.90;94.60;;;;;;4891961;29;20913;-77
2024/01/28 03:55:58;;;;;;;24.40;12.55;;;1.90;94.40;;;;;;4875555;29;20537;-78
2024/01/28 03:58:23;;;;;;;25.10;12.27;;;1.90;94.40;;;;;;4892365;29;20461;-77
2024/01/28 04:00:49;;;;;;;22.42;11.75;;;1.90;94.20;;;;;;4892144;29;20763;-77
2024/01/28 04:03:14;;;;;;;25.13;12.03;;;2.00;94.20;;;;;;4892204;29;20435;-77
2024/01/28 04:05:42;;;;;;;23.60;11.65;;;2.00;94.10;;;;;;4892008;29;20451;-77
2024/01/28 04:08:11;;;;;;;21.38;12.18;;;2.00;94.00;;;;;;4892935;29;20921;-77
2024/01/28 04:10:37;;;;;;;22.65;12.32;;;1.90;94.00;;;;;;4875975;29;20424;-77
2024/01/28 04:13:03;;;;;;;26.73;12.40;;;2.00;94.00;;;;;;4886488;29;20925;-77
2024/01/28 04:15:28;;;;;;;24.73;12.90;;;2.00;94.00;;;;;;4881398;29;20454;-77
2024/01/28 04:17:54;;;;;;;23.27;12.80;;;1.90;94.00;;;;;;4891079;29;20427;-77
2024/01/28 04:20:19;;;;;;;24.33;12.80;;;2.00;94.10;;;;;;4892115;29;20450;-77
2024/01/28 04:22:45;;;;;;;25.60;12.73;;;1.90;94.00;;;;;;4891853;29;20951;-77
2024/01/28 04:25:12;;;;;;;27.35;12.65;;;1.90;93.90;;;;;;4864730;29;20451;-78
2024/01/28 04:27:38;;;;;;;29.60;13.20;;;1.90;93.90;;;;;;4890312;29;20419;-77
2024/01/28 04:30:05;;;;;;;23.02;12.57;;;1.90;93.90;;;;;;4891893;29;20423;-77
2024/01/28 04:32:31;;;;;;;27.00;13.10;;;1.90;93.80;;;;;;4889852;29;20450;-77
2024/01/28 04:34:56;;;;;;;24.27;12.93;;;1.90;93.70;;;;;;4891738;29;20450;-77
2024/01/28 04:37:23;;;;;;;22.75;13.00;;;1.90;93.70;;;;;;4889890;29;20908;-77
2024/01/28 04:39:50;;;;;;;23.92;12.93;;;1.90;93.70;;;;;;4863171;29;20537;-77
2024/01/28 04:42:21;;;;;;;23.25;12.45;;;1.90;93.90;;;;;;4880253;29;20427;-77
2024/01/28 04:44:50;;;;;;;25.45;13.57;;;1.90;93.90;;;;;;4880758;29;20448;-77
2024/01/28 04:47:16;;;;;;;25.85;12.80;;;1.90;93.70;;;;;;4851147;29;20455;-77
2024/01/28 04:49:42;;;;;;;26.07;12.77;;;1.90;93.70;;;;;;4881307;29;20417;-77
2024/01/28 04:52:08;;;;;;;28.17;12.85;;;1.90;93.50;;;;;;4883220;29;20465;-77
2024/01/28 04:54:34;;;;;;;25.37;12.40;;;1.80;93.50;;;;;;4879300;29;20448;-77
2024/01/28 04:57:01;;;;;;;24.73;12.40;;;1.80;93.40;;;;;;4877195;29;20422;-77
2024/01/28 04:59:27;;;;;;;23.65;11.65;;;1.80;93.50;;;;;;4872456;29;20435;-77
2024/01/28 05:01:53;;;;;;;26.67;12.20;;;1.80;93.30;;;;;;4874667;29;20508;-77
2024/01/28 05:04:19;;;;;;;26.00;11.20;;;1.80;93.30;;;;;;4878565;29;20432;-77
2024/01/28 05:06:44;;;;;;;25.25;12.20;;;1.70;93.20;;;;;;4881859;29;20472;-77
2024/01/28 05:09:10;;;;;;;25.30;12.13;;;1.70;93.40;;;;;;4877771;29;20831;-77
2024/01/28 05:11:36;;;;;;;24.60;12.23;;;1.70;93.30;;;;;;4881256;29;20417;-77
2024/01/28 05:14:04;;;;;;;20.90;11.52;;;1.70;93.20;;;;;;4878293;29;20416;-77
2024/01/28 05:16:30;;;;;;;23.50;11.13;;;1.60;93.30;;;;;;4874804;29;20799;-77
2024/01/28 05:18:56;;;;;;;25.35;11.85;;;1.60;93.40;;;;;;4877770;29;20420;-77
2024/01/28 05:21:23;;;;;;;20.85;11.10;;;1.60;93.30;;;;;;4880492;29;21105;-77
2024/01/28 05:23:49;;;;;;;21.40;11.97;;;1.60;93.30;;;;;;4877751;29;20420;-77
2024/01/28 05:26:14;;;;;;;22.45;11.25;;;1.60;93.30;;;;;;4871239;29;20448;-77
2024/01/28 05:28:41;;;;;;;20.77;11.07;;;1.50;93.20;;;;;;4857156;29;20429;-77
2024/01/28 05:31:08;;;;;;;22.20;11.00;;;1.50;93.40;;;;;;4879923;29;21002;-77
2024/01/28 05:33:37;;;;;;;23.25;11.20;;;1.50;93.30;;;;;;4857878;29;20426;-77
2024/01/28 05:36:21;;;;;;;22.02;10.68;;;1.50;93.30;;;;;;4879924;29;20409;-77
2024/01/28 05:38:47;;;;;;;23.40;11.18;;;1.50;93.30;;;;;;4880521;29;20419;-77
2024/01/28 05:41:12;;;;;;;21.25;11.23;;;1.50;93.40;;;;;;4861275;29;20790;-78
2024/01/28 05:43:38;;;;;;;23.60;10.80;;;1.40;93.40;;;;;;4873916;29;20426;-77
2024/01/28 05:46:04;;;;;;;23.03;10.97;;;1.40;93.30;;;;;;4888384;29;20446;-77
2024/01/28 05:48:31;;;;;;;22.48;11.05;;;1.40;93.40;;;;;;4891323;29;20479;-77
2024/01/28 05:50:56;;;;;;;23.50;11.38;;;1.40;93.40;;;;;;4888722;29;20450;-77
2024/01/28 05:53:25;;;;;;;22.17;11.90;;;1.40;93.70;;;;;;4873616;29;20586;-77
2024/01/28 05:55:52;;;;;;;23.05;10.65;;;1.30;93.30;;;;;;4887019;29;20471;-77
2024/01/28 05:58:18;;;;;;;22.17;10.55;;;1.40;93.30;;;;;;4889895;29;20490;-77
2024/01/28 06:00:44;;;;;;;19.88;10.98;;;1.30;93.30;;;;;;4870817;29;20419;-77
2024/01/28 06:03:10;;;;;;;21.73;10.27;;;1.30;93.30;;;;;;4889842;29;20474;-77
2024/01/28 06:05:35;;;;;;;20.55;10.85;;;1.30;93.50;;;;;;4887174;29;20431;-77
2024/01/28 06:08:01;;;;;;;19.70;10.45;;;1.30;93.50;;;;;;4873153;29;20830;-78
2024/01/28 06:10:26;;;;;;;20.20;10.50;;;1.30;93.50;;;;;;4886068;29;20977;-77
2024/01/28 06:12:52;;;;;;;22.67;10.73;;;1.30;93.60;;;;;;4888405;29;20540;-77
2024/01/28 06:15:17;;;;;;;22.23;10.67;;;1.30;93.60;;;;;;4886088;29;20412;-77
2024/01/28 06:17:43;;;;;;;19.23;10.65;;;1.30;93.60;;;;;;4889349;29;20947;-78
2024/01/28 06:20:09;;;;;;;19.13;9.80;;;1.30;93.50;;;;;;4882222;29;20425;-78
2024/01/28 06:22:34;;;;;;;19.63;10.43;;;1.30;93.30;;;;;;4881791;29;20454;-78
2024/01/28 06:25:01;;;;;;;22.92;10.45;;;1.30;93.30;;;;;;4882891;29;21015;-78
2024/01/28 06:27:27;;;;;;;21.13;9.95;;;1.30;93.20;;;;;;4882332;29;20917;-78
2024/01/28 06:29:53;;;;;;;20.38;10.07;;;1.30;93.30;;;;;;4881492;29;20854;-78
2024/01/28 06:32:21;;;;;;;17.35;9.98;;;1.30;93.10;;;;;;4873789;29;20523;-78
2024/01/28 06:34:46;;;;;;;21.30;10.10;;;1.30;93.00;;;;;;4875406;29;20543;-78
2024/01/28 06:37:12;;;;;;;24.13;10.10;;;1.30;92.90;;;;;;4888527;29;20437;-78
2024/01/28 06:39:38;;;;;;;20.77;10.73;;;1.30;92.70;;;;;;4882364;29;20499;-78
2024/01/28 06:42:04;;;;;;;17.33;9.80;;;1.30;92.70;;;;;;4884438;29;20503;-78
2024/01/28 06:44:32;;;;;;;20.98;10.10;;;1.30;92.60;;;;;;4887810;29;20790;-78
2024/01/28 06:46:59;;;;;;;19.63;10.60;;;1.20;92.60;;;;;;4889972;29;21083;-78
2024/01/28 06:49:25;;;;;;;18.38;9.98;;;1.20;92.40;;;;;;4886741;29;20963;-78
2024/01/28 06:51:51;;;;;;;20.48;10.32;;;1.20;92.50;;;;;;4872191;29;20948;-77
2024/01/28 06:54:18;;;;;;;19.27;10.30;;;1.20;92.50;;;;;;4886245;29;20423;-78
2024/01/28 06:56:44;;;;;;;22.05;10.25;;;1.20;92.40;;;;;;4871286;29;20427;-76
2024/01/28 06:59:10;;;;;;;20.02;9.95;;;1.20;92.40;;;;;;4886810;29;20499;-76
2024/01/28 07:01:35;;;;;;;21.85;10.32;;;1.20;92.40;;;;;;4871806;29;20431;-77
2024/01/28 07:04:01;;;;;;;19.20;9.87;;;1.10;92.40;;;;;;4886780;29;20490;-77
2024/01/28 07:06:27;;;;;;;20.57;9.90;;;1.10;92.30;;;;;;4887929;29;20418;-76
2024/01/28 07:08:52;;;;;;;18.73;9.75;;;1.10;92.30;;;;;;4884360;29;20436;-76
2024/01/28 07:11:19;;;;;;;19.27;9.70;;;1.10;92.30;;;;;;4887468;29;20518;-77
2024/01/28 07:13:45;;;;;;;21.00;9.90;;;1.10;92.20;;;;;;4872815;29;20523;-77
2024/01/28 07:16:12;;;;;;;22.20;9.68;;;1.10;92.20;;;;;;4887068;29;20496;-77
2024/01/28 07:18:37;;;;;;;21.42;9.48;;;1.10;92.50;;;;;;4884832;29;20432;-77
2024/01/28 07:21:04;;;;;;;22.15;9.80;;;1.10;92.10;;;;;;4887581;29;20429;-77
2024/01/28 07:23:29;;;;;;;15.68;9.02;;;1.10;92.10;;;;;;4884457;29;20477;-77
2024/01/28 07:25:55;;;;;;;19.13;9.77;;;1.10;92.10;;;;;;4870765;29;20447;-77
2024/01/28 07:28:21;;;;;;;17.40;9.70;;;1.10;92.00;;;;;;4884384;29;20478;-77
2024/01/28 07:30:46;;;;;;;19.13;9.38;;;1.10;92.00;;;;;;4887948;29;20425;-77
2024/01/28 07:33:13;;;;;;;19.97;9.80;;;1.10;92.00;;;;;;4885044;29;20839;-76
2024/01/28 07:35:38;;;;;;;17.40;9.18;;;1.10;92.00;;;;;;4870982;29;20455;-77
2024/01/28 07:38:04;;;;;;;19.33;9.57;;;1.10;91.90;;;;;;4885017;29;20411;-77
2024/01/28 07:40:30;;;;;;;18.80;9.27;;;1.10;91.80;;;;;;4878601;29;20979;-77
2024/01/28 07:42:56;;;;;;;17.83;9.27;;;1.10;91.80;;;;;;4888664;29;20545;-77
2024/01/28 07:45:22;;;;;;;16.50;8.70;;;1.10;91.80;;;;;;4889792;29;20503;-77
2024/01/28 07:47:47;;;;;;;18.30;9.07;;;1.10;91.70;;;;;;4888667;29;20407;-77
2024/01/28 07:50:13;;;;;;;18.55;8.93;;;1.10;91.90;;;;;;4891340;29;20415;-77
2024/01/28 07:52:40;;;;;;;18.57;8.77;;;1.10;91.50;;;;;;4875631;29;20427;-77
2024/01/28 07:55:06;;;;;;;16.63;8.27;;;1.10;91.40;;;;;;4892606;29;20450;-77
2024/01/28 07:57:32;;;;;;;19.60;8.80;;;1.10;91.40;;;;;;4891739;29;20834;-77
2024/01/28 07:59:57;;;;;;;21.13;8.80;;;1.20;91.40;;;;;;4893203;29;20423;-77
2024/01/28 08:02:23;;;;;;;13.75;8.07;;;1.20;91.30;;;;;;4891221;29;21167;-77
2024/01/28 08:04:49;;;;;;;16.83;7.53;;;1.20;91.30;;;;;;4893355;29;20431;-76
2024/01/28 08:07:15;;;;;;;17.15;7.97;;;1.20;91.20;;;;;;4890820;29;20415;-77
2024/01/28 08:09:41;;;;;;;16.38;7.80;;;1.20;91.10;;;;;;4892985;29;20484;-76
2024/01/28 08:12:07;;;;;;;17.17;7.88;;;1.30;91.00;;;;;;4891143;29;20452;-77
2024/01/28 08:14:33;;;;;;;17.80;7.90;;;1.30;91.00;;;;;;4892834;29;20916;-77
2024/01/28 08:16:58;;;;;;;20.27;8.20;;;1.30;90.90;;;;;;4891516;29;20944;-77
2024/01/28 08:19:24;;;;;;;14.90;7.73;;;1.30;90.70;;;;;;4893086;29;20968;-77
2024/01/28 08:21:50;;;;;;;17.92;7.90;;;1.30;90.40;;;;;;4892159;29;20419;-76
2024/01/28 08:24:16;;;;;;;15.73;7.40;;;1.40;90.20;;;;;;4857597;29;20424;-77
2024/01/28 08:26:41;;;;;;;17.37;7.23;;;1.40;90.20;;;;;;4890860;29;20490;-77
2024/01/28 08:29:07;;;;;;;16.08;7.35;;;1.40;90.00;;;;;;4892394;29;20919;-76
2024/01/28 08:31:33;;;;;;;14.73;6.95;;;1.40;89.90;;;;;;4893046;29;20853;-77
2024/01/28 08:34:00;;;;;;;15.67;7.60;;;1.50;89.40;;;;;;4894163;29;20415;-77
2024/01/28 08:36:26;;;;;;;17.63;7.38;;;1.50;88.80;;;;;;4886529;29;20424;-77
2024/01/28 08:38:52;;;;;;;14.13;6.93;;;1.40;88.40;;;;;;4880224;29;20439;-78
2024/01/28 08:41:17;;;;;;;12.87;6.77;;;1.50;88.70;;;;;;4881164;29;20426;-78
2024/01/28 08:43:43;;;;;;;11.60;5.93;;;1.50;88.10;;;;;;4881004;29;20452;-76
2024/01/28 08:46:09;;;;;;;16.77;6.70;;;1.50;88.30;;;;;;4875297;29;20525;-77
2024/01/28 08:48:35;;;;;;;18.03;6.80;;;1.50;87.10;;;;;;4875349;29;20419;-76
2024/01/28 08:51:01;;;;;;;16.35;7.00;;;1.50;86.90;;;;;;4878020;29;20422;-77
2024/01/28 08:53:27;;;;;;;12.18;6.60;;;1.50;86.80;;;;;;4876840;29;20500;-76
2024/01/28 08:55:52;;;;;;;13.10;6.55;;;1.50;86.30;;;;;;4856117;29;20426;-77
2024/01/28 08:58:18;;;;;;;16.07;6.90;;;1.50;86.30;;;;;;4878466;29;20424;-76
2024/01/28 09:00:43;;;;;;;13.07;5.93;;;1.50;85.70;;;;;;4879086;29;20495;-76
2024/01/28 09:03:09;;;;;;;10.73;5.93;;;1.50;85.90;;;;;;4877049;29;20984;-76
2024/01/28 09:05:34;;;;;;;13.27;6.00;;;1.60;85.80;;;;;;4875658;29;20445;-77
2024/01/28 09:08:00;;;;;;;12.68;6.15;;;1.60;85.20;;;;;;4874820;29;20415;-76
2024/01/28 09:10:26;;;;;;;12.07;5.55;;;1.70;85.00;;;;;;4876118;29;20427;-76
2024/01/28 09:12:52;;;;;;;14.53;5.87;;;1.70;85.30;;;;;;4878802;29;20440;-76
2024/01/28 09:15:17;;;;;;;12.00;5.50;;;1.80;84.40;;;;;;4874392;29;20844;-77
2024/01/28 09:17:43;;;;;;;12.23;5.60;;;1.80;83.20;;;;;;4863886;29;20448;-78
2024/01/28 09:20:09;;;;;;;10.90;5.10;;;1.90;80.60;;;;;;4878475;29;20450;-78
2024/01/28 09:22:36;;;;;;;13.65;5.50;;;2.00;80.70;;;;;;4888545;29;20770;-77
2024/01/28 09:25:03;;;;;;;11.82;5.40;;;2.00;79.00;;;;;;4880321;29;20437;-78
2024/01/28 09:27:29;;;;;;;12.35;4.97;;;2.10;77.80;;;;;;4879646;29;20417;-76
2024/01/28 09:29:55;;;;;;;11.85;5.07;;;2.10;76.40;;;;;;4873240;29;20917;-76
2024/01/28 09:32:23;;;;;;;11.23;4.57;;;2.20;75.40;;;;;;4876618;29;20420;-77
2024/01/28 09:34:48;;;;;;;12.75;4.60;;;2.30;76.20;;;;;;4871589;29;20431;-77
2024/01/28 09:37:14;;;;;;;10.45;4.93;;;2.40;74.70;;;;;;4888118;29;20423;-77
2024/01/28 09:39:40;;;;;;;9.83;4.73;;;2.50;74.10;;;;;;4885158;29;20417;-77
2024/01/28 09:42:23;;;;;;;9.98;4.13;;;2.60;72.10;;;;;;4885796;29;20423;-77
2024/01/28 09:44:49;;;;;;;11.52;4.43;;;2.70;71.20;;;;;;4870281;29;20423;-77
2024/01/28 09:47:18;;;;;;;12.35;4.82;;;2.90;70.10;;;;;;4882123;29;20416;-77
2024/01/28 09:49:44;;;;;;;9.82;3.90;;;3.10;69.10;;;;;;4879134;29;20426;-78
2024/01/28 09:52:16;;;;;;;12.98;4.18;;;3.30;67.40;;;;;;4884767;29;21746;-78
2024/01/28 09:54:44;;;;;;;10.07;4.07;;;3.40;57.80;;;;;;4871417;29;20423;-78
2024/01/28 09:57:11;;;;;;;9.57;3.92;;;3.60;52.30;;;;;;4883192;29;20399;-78
2024/01/28 09:59:36;;;;;;;9.90;3.70;;;3.70;55.20;;;;;;4877634;29;20461;-78
2024/01/28 10:02:06;;;;;;;10.77;4.27;;;3.80;51.20;;;;;;4873687;29;20516;-78
2024/01/28 10:04:33;;;;;;;9.82;4.38;;;3.80;51.10;;;;;;4880226;29;20529;-78
2024/01/28 10:06:59;;;;;;;8.00;3.33;;;3.80;49.10;;;;;;4885071;29;20919;-78
2024/01/28 10:09:31;;;;;;;8.75;3.60;;;3.90;48.70;;;;;;4881123;29;20442;-78
2024/01/28 10:12:01;;;;;;;11.10;3.75;;;3.90;50.20;;;;;;4884789;29;20453;-78
2024/01/28 10:14:27;;;;;;;8.82;3.58;;;3.90;48.30;;;;;;4878562;29;20431;-78
2024/01/28 10:16:53;;;;;;;8.40;3.50;;;3.90;48.40;;;;;;4869770;29;20943;-78
2024/01/28 10:19:18;;;;;;;11.07;3.58;;;3.90;48.00;;;;;;4878970;29;20498;-78
2024/01/28 10:21:44;;;;;;;11.23;3.90;;;4.00;46.40;;;;;;4884810;29;20819;-78
2024/01/28 10:24:11;;;;;;;9.50;3.70;;;4.00;49.80;;;;;;4883353;29;20427;-78
2024/01/28 10:26:38;;;;;;;9.75;4.22;;;4.00;46.90;;;;;;4884823;29;20421;-77
2024/01/28 10:29:06;;;;;;;7.07;3.73;;;4.10;42.70;;;;;;4860179;29;20443;-78
2024/01/28 10:31:32;;;;;;;8.77;3.67;;;4.10;39.70;;;;;;4881025;29;20447;-77
2024/01/28 10:33:58;;;;;;;8.68;3.22;;;4.10;38.70;;;;;;4885712;29;20426;-78
2024/01/28 10:36:24;;;;;;;9.70;3.72;;;4.20;37.90;;;;;;4877957;29;20419;-78
2024/01/28 10:39:00;;;;;;;9.13;3.30;;;4.20;32.50;;;;;;4876760;29;21542;-79
2024/01/28 10:41:27;;;;;;;9.63;3.35;;;4.20;32.80;;;;;;4872155;29;20465;-78
2024/01/28 10:43:58;;;;;;;8.45;3.33;;;4.30;38.20;;;;;;4872736;29;20455;-78
2024/01/28 10:46:39;;;;;;;8.23;3.27;;;4.40;35.50;;;;;;4870687;29;20561;-78
2024/01/28 10:49:09;;;;;;;8.27;3.07;;;4.80;52.70;;;;;;4887332;29;20929;-78
2024/01/28 10:51:39;;;;;;;7.70;3.17;;;6.10;69.90;;;;;;4884003;29;20435;-76
2024/01/28 10:54:09;;;;;;;8.70;3.43;;;7.50;25.50;;;;;;4889729;29;20791;-76
2024/01/28 10:56:38;;;;;;;7.63;3.30;;;8.60;1.00;;;;;;4872930;29;20915;-77
2024/01/28 10:59:04;;;;;;;9.15;3.00;;;9.60;1.00;;;;;;4889295;29;20423;-78
2024/01/28 11:01:32;;;;;;;7.15;2.72;;;10.30;1.00;;;;;;4879301;29;20440;-77
2024/01/28 11:03:58;;;;;;;10.20;2.90;;;10.90;1.00;;;;;;4889810;29;20479;-77
2024/01/28 11:06:29;;;;;;;7.20;2.70;;;11.30;1.00;;;;;;4864392;29;20533;-77
2024/01/28 11:08:55;;;;;;;7.80;2.70;;;11.30;1.00;;;;;;4881886;29;20442;-77
2024/01/28 11:11:22;;;;;;;6.22;2.55;;;11.10;99.90;;;;;;4876775;29;20451;-77
2024/01/28 11:13:47;;;;;;;6.47;2.25;;;11.20;1.00;;;;;;4879007;29;20516;-78
2024/01/28 11:16:15;;;;;;;9.53;2.90;;;11.70;1.00;;;;;;4877073;29;20450;-79
2024/01/28 11:18:41;;;;;;;5.88;2.55;;;12.10;1.00;;;;;;4877231;29;20495;-78
2024/01/28 11:21:12;;;;;;;5.45;2.58;;;12.50;99.90;;;;;;4870209;29;20808;-79
2024/01/28 11:23:44;;;;;;;9.13;2.70;;;12.80;99.90;;;;;;4881081;29;21065;-78
2024/01/28 11:26:17;;;;;;;6.65;2.50;;;13.10;99.90;;;;;;4862061;29;21017;-78
2024/01/28 11:28:50;;;;;;;5.05;2.40;;;13.30;99.90;;;;;;4883732;29;20423;-78
2024/01/28 11:31:25;;;;;;;7.90;2.65;;;13.50;99.90;;;;;;4883156;29;20931;-78
2024/01/28 11:33:52;;;;;;;7.22;2.67;;;13.80;99.90;;;;;;4887437;29;20430;-78
2024/01/28 11:36:26;;;;;;;6.20;2.70;;;14.10;99.90;;;;;;4885903;29;20466;-78
2024/01/28 11:39:06;;;;;;;6.32;2.38;;;14.20;1.00;;;;;;4874566;29;20448;-79
2024/01/28 11:41:38;;;;;;;6.63;2.80;;;14.30;73.70;;;;;;4883843;29;20415;-79
2024/01/28 11:44:07;;;;;;;6.38;2.40;;;14.30;1.00;;;;;;4891356;29;20437;-78
2024/01/28 11:46:35;;;;;;;6.20;2.28;;;14.40;99.90;;;;;;4885025;29;20449;-79
2024/01/28 11:49:00;;;;;;;6.57;2.20;;;14.60;99.90;;;;;;4875338;29;20479;-78
2024/01/28 11:51:31;;;;;;;5.78;2.35;;;14.50;1.00;;;;;;4893885;29;20411;-77
2024/01/28 11:53:59;;;;;;;7.17;2.30;;;13.70;99.90;;;;;;4890898;29;20420;-77
2024/01/28 11:56:24;;;;;;;8.77;2.72;;;12.80;22.00;;;;;;4892826;29;20477;-79
2024/01/28 11:58:51;;;;;;;5.82;2.10;;;12.20;99.90;;;;;;4889949;29;20416;-78
2024/01/28 12:01:17;;;;;;;6.88;2.47;;;11.50;99.90;;;;;;4876286;29;20429;-79
2024/01/28 12:03:42;;;;;;;6.20;2.50;;;10.80;99.90;;;;;;4890084;29;20417;-78
2024/01/28 12:06:08;;;;;;;7.00;2.33;;;10.40;99.90;;;;;;4891642;29;20443;-77
2024/01/28 12:08:41;;;;;;;5.93;2.40;;;10.00;1.00;;;;;;4888381;29;20420;-77
2024/01/28 12:11:07;;;;;;;5.53;2.10;;;9.70;1.00;;;;;;4892285;29;20427;-78
2024/01/28 12:13:33;;;;;;;6.13;2.10;;;9.40;1.00;;;;;;4887409;29;20409;-78
2024/01/28 12:15:59;;;;;;;6.37;1.97;;;9.20;1.00;;;;;;4890235;29;20415;-79
2024/01/28 12:18:38;;;;;;;5.35;1.75;;;9.00;1.00;;;;;;4886197;29;20531;-77
2024/01/28 12:21:05;;;;;;;7.30;2.20;;;8.90;1.00;;;;;;4888860;29;21050;-79
2024/01/28 12:23:31;;;;;;;6.55;1.85;;;8.80;1.00;;;;;;4886724;29;20490;-78
2024/01/28 12:25:58;;;;;;;6.55;1.95;;;8.80;1.00;;;;;;4888254;29;20474;-77
2024/01/28 12:28:23;;;;;;;5.10;1.50;;;8.70;1.00;;;;;;4886040;29;20422;-78
2024/01/28 12:30:50;;;;;;;5.63;1.70;;;8.60;1.00;;;;;;4870108;29;20418;-78
2024/01/28 12:33:19;;;;;;;5.43;1.55;;;8.60;1.00;;;;;;4884853;29;21801;-77
2024/01/28 12:35:45;;;;;;;5.38;1.92;;;8.60;1.00;;;;;;4886306;29;20412;-78
2024/01/28 12:38:11;;;;;;;6.43;1.93;;;8.80;1.00;;;;;;4884011;29;20765;-77
2024/01/28 12:40:37;;;;;;;5.53;1.85;;;9.10;1.00;;;;;;4879498;29;20836;-77